Airfield :
LOGIN :

Register | Disclaimer

   EN    FR    IT 

 










Legend :    VFR   Marginal VFR   IFR   Intensive IFR   Very Intensive IFR
Visi :
Ceiling :
>= 8 km
>= 3000ft
5 to 8 km
1000 to 3000 ft
1500m to 5 km
500 to 1000 ft
800 to 1500m
200 to 500 ft
< 800m
< 200 ft
Symbols :   Thunderstorms  Fog  Heavy snow  Heavy precipitations  Wind > 20 kt
SIGMETs :     Misc.  Thunderstorms  Icing  Turbulence  Mountain Waves  Volcanic Ashes






- Airport Elevation : 101 ft
- IATA code : GLO


EGBJ - Gloucestershire

CURRENT METAR :
  • 071820Z 21004KT 9999 FEW018 13/11 Q1016

EXPIRED METARs :
  • 071750Z 21005KT 9999 FEW018 14/12 Q1015
  • 071720Z 21005KT 9999 FEW017 14/12 Q1015
  • 071650Z 21006KT 9999 FEW016 SCT023 FEW024TCU 14/12 Q1015
  • 071620Z 20005KT 9999 VCSH FEW015 FEW023TCU 14/12 Q1015
  • 071550Z 20007KT 9999 FEW016 FEW025TCU 14/13 Q1015

Expired Forecast.



MET'MAP, your aeronautical weather chart ! - Copyright ORBIFLY December 2007 - Disclaimer

ORBIFLY MET'MAP TEAM :

Programming & Development : Alexandra Zaïnal
Original concept : Baudouin d'Aumeries
Technical & hardware support : Manuel Goepfert
Assistance : Marc-Olivier Méhu




SOURCES & CREDITS :

   NOAA